Time;durP1;ratioP1;P1;durP2;ratioP2;P2;SDS_P1;SDS_P2;PMS_P1;PMS_P2;Temp;Humidity;BMP_temperature;BMP_pressure;BME280_temperature;BME280_humidity;BME280_pressure;Samples;Min_cycle;Max_cycle;Signal;HPM_P1;HPM_P2
2023/08/06 00:01:50;;;;;;;6.88;2.88;;;10.30;99.90;;;;;;5031017;28;20378;-86
2023/08/06 00:04:16;;;;;;;7.72;3.05;;;10.20;99.90;;;;;;5032297;28;20032;-86
2023/08/06 00:06:42;;;;;;;6.03;3.00;;;10.20;99.90;;;;;;5031936;28;20167;-86
2023/08/06 00:09:08;;;;;;;6.43;3.00;;;10.20;99.90;;;;;;5032141;28;20065;-86
2023/08/06 00:11:33;;;;;;;5.68;2.85;;;10.10;99.90;;;;;;5032111;28;20071;-85
2023/08/06 00:13:59;;;;;;;8.18;3.58;;;10.10;99.90;;;;;;5031717;28;20021;-87
2023/08/06 00:16:25;;;;;;;7.10;2.80;;;10.10;99.90;;;;;;5031155;28;20095;-87
2023/08/06 00:18:50;;;;;;;5.38;2.92;;;10.10;99.90;;;;;;5033698;28;20037;-86
2023/08/06 00:21:16;;;;;;;9.82;2.90;;;10.10;99.90;;;;;;5034026;28;20029;-86
2023/08/06 00:23:42;;;;;;;8.65;4.22;;;10.00;99.90;;;;;;5034896;28;20068;-87
2023/08/06 00:26:07;;;;;;;7.47;3.10;;;10.00;99.90;;;;;;5034749;28;20072;-85
2023/08/06 00:28:33;;;;;;;4.25;2.83;;;10.00;99.90;;;;;;5034710;28;20049;-86
2023/08/06 00:30:58;;;;;;;10.30;3.38;;;10.00;99.90;;;;;;5034334;28;20116;-87
2023/08/06 00:33:24;;;;;;;8.23;3.15;;;10.00;99.90;;;;;;5035839;28;20033;-86
2023/08/06 00:35:50;;;;;;;7.35;3.33;;;10.00;99.90;;;;;;5034571;28;20028;-86
2023/08/06 00:38:16;;;;;;;6.43;2.72;;;10.00;99.90;;;;;;5033967;28;20382;-85
2023/08/06 00:40:42;;;;;;;7.93;3.33;;;10.00;99.90;;;;;;5034246;28;20037;-86
2023/08/06 00:43:08;;;;;;;11.00;3.22;;;10.00;99.90;;;;;;5036037;28;20029;-87
2023/08/06 00:45:36;;;;;;;5.80;3.60;;;10.10;99.90;;;;;;5034398;28;20037;-85
2023/08/06 00:48:05;;;;;;;9.20;3.42;;;10.10;99.90;;;;;;5034033;28;20647;-88
2023/08/06 00:50:31;;;;;;;8.25;3.17;;;10.10;99.90;;;;;;5035318;28;20030;-87
2023/08/06 00:52:57;;;;;;;6.82;3.13;;;10.10;99.90;;;;;;5034288;28;20395;-87
2023/08/06 00:55:23;;;;;;;5.90;3.05;;;10.10;99.90;;;;;;5035113;28;20028;-88
2023/08/06 00:57:51;;;;;;;9.23;3.63;;;10.20;99.90;;;;;;5035058;28;20033;-88
2023/08/06 01:00:16;;;;;;;8.65;3.42;;;10.20;99.90;;;;;;5033904;28;20416;-88
2023/08/06 01:02:42;;;;;;;5.82;3.45;;;10.20;99.90;;;;;;5033788;28;20091;-87
2023/08/06 01:05:08;;;;;;;8.73;3.38;;;10.20;99.90;;;;;;5033416;28;20120;-88
2023/08/06 01:07:51;;;;;;;6.00;3.05;;;10.20;99.90;;;;;;5034345;28;20033;-87
2023/08/06 01:10:57;;;;;;;7.25;3.25;;;10.20;99.90;;;;;;5035106;28;20541;-87
2023/08/06 01:13:40;;;;;;;7.80;3.08;;;10.30;99.90;;;;;;5033539;28;20040;-88
2023/08/06 01:16:07;;;;;;;6.22;3.58;;;10.30;99.90;;;;;;5035639;28;20021;-86
2023/08/06 01:18:32;;;;;;;8.23;3.17;;;10.30;99.90;;;;;;5033899;28;20029;-87
2023/08/06 01:20:58;;;;;;;8.80;4.15;;;10.30;99.90;;;;;;5035231;28;20026;-86
2023/08/06 01:23:25;;;;;;;7.22;3.30;;;10.40;99.90;;;;;;5034836;28;20084;-86
2023/08/06 01:26:08;;;;;;;7.32;3.30;;;10.40;99.90;;;;;;5034281;28;20037;-86
2023/08/06 01:28:47;;;;;;;7.13;3.13;;;10.40;99.90;;;;;;5032852;28;20036;-87
2023/08/06 01:31:26;;;;;;;7.90;3.30;;;10.40;99.90;;;;;;5033828;28;20044;-87
2023/08/06 01:33:53;;;;;;;8.68;3.72;;;10.40;99.90;;;;;;5033124;28;20032;-86
2023/08/06 01:36:20;;;;;;;6.60;3.05;;;10.40;99.90;;;;;;5034364;28;20041;-87
2023/08/06 01:38:46;;;;;;;9.52;3.75;;;10.50;99.90;;;;;;5034155;28;20022;-87
2023/08/06 01:41:11;;;;;;;6.65;3.28;;;10.50;99.90;;;;;;5033045;28;20450;-87
2023/08/06 01:43:37;;;;;;;5.63;3.17;;;10.50;99.90;;;;;;5034185;28;20081;-87
2023/08/06 01:46:03;;;;;;;7.45;3.28;;;10.60;99.90;;;;;;5032814;28;20033;-86
2023/08/06 01:48:28;;;;;;;8.55;3.28;;;10.60;99.90;;;;;;5034220;28;20021;-87
2023/08/06 01:50:54;;;;;;;5.28;3.20;;;10.60;99.90;;;;;;5032678;28;20128;-87
2023/08/06 01:53:20;;;;;;;7.93;3.17;;;10.60;99.90;;;;;;5032729;28;20123;-87
2023/08/06 01:55:49;;;;;;;6.25;3.17;;;10.60;99.90;;;;;;5033766;28;20025;-88
2023/08/06 01:58:15;;;;;;;5.97;2.80;;;10.60;99.90;;;;;;5034171;28;20124;-85
2023/08/06 02:00:40;;;;;;;7.82;2.97;;;10.60;99.90;;;;;;5032560;28;20061;-86
2023/08/06 02:03:06;;;;;;;7.90;2.95;;;10.60;99.90;;;;;;5032409;28;20021;-86
2023/08/06 02:05:32;;;;;;;9.50;3.13;;;10.70;99.90;;;;;;5033719;28;20034;-86
2023/08/06 02:07:57;;;;;;;8.70;3.28;;;10.70;99.90;;;;;;5033772;28;20021;-85
2023/08/06 02:10:23;;;;;;;9.70;3.35;;;10.70;99.90;;;;;;5033366;28;20021;-86
2023/08/06 02:12:49;;;;;;;12.50;2.95;;;10.70;99.90;;;;;;5032318;28;20032;-87
2023/08/06 02:15:14;;;;;;;7.60;3.15;;;10.70;99.90;;;;;;5033534;28;20025;-87
2023/08/06 02:17:40;;;;;;;13.98;3.30;;;10.60;99.90;;;;;;5031826;28;20467;-87
2023/08/06 02:20:06;;;;;;;9.20;3.03;;;10.60;99.90;;;;;;5033613;28;20082;-86
2023/08/06 02:22:33;;;;;;;7.03;2.80;;;10.60;99.90;;;;;;5033135;28;20436;-87
2023/08/06 02:24:58;;;;;;;6.97;3.45;;;10.60;99.90;;;;;;5032199;28;20029;-86
2023/08/06 02:27:24;;;;;;;6.30;3.03;;;10.60;99.90;;;;;;5031591;28;20035;-86
2023/08/06 02:29:50;;;;;;;6.82;2.80;;;10.60;99.90;;;;;;5032833;28;20013;-86
2023/08/06 02:32:15;;;;;;;8.57;3.63;;;10.50;99.90;;;;;;5034090;28;20025;-86
2023/08/06 02:34:41;;;;;;;7.15;3.28;;;10.50;99.90;;;;;;5033228;28;20057;-87
2023/08/06 02:37:07;;;;;;;7.93;3.25;;;10.50;99.90;;;;;;5033256;28;20033;-86
2023/08/06 02:39:33;;;;;;;5.20;3.20;;;10.50;99.90;;;;;;5032767;28;20104;-86
2023/08/06 02:41:59;;;;;;;7.80;2.97;;;10.50;99.90;;;;;;5033163;28;20037;-87
2023/08/06 02:44:27;;;;;;;3.85;2.72;;;10.50;99.90;;;;;;5032925;28;20025;-86
2023/08/06 02:46:53;;;;;;;5.40;3.03;;;10.50;99.90;;;;;;5032656;28;20036;-87
2023/08/06 02:49:19;;;;;;;5.25;2.75;;;10.40;99.90;;;;;;5031704;28;20120;-87
2023/08/06 02:51:47;;;;;;;6.13;2.80;;;10.40;99.90;;;;;;5033177;28;20483;-87
2023/08/06 02:54:13;;;;;;;4.93;2.85;;;10.40;99.90;;;;;;5032562;28;20105;-87
2023/08/06 02:56:42;;;;;;;6.82;3.00;;;10.40;99.90;;;;;;5032954;28;20101;-87
2023/08/06 02:59:08;;;;;;;7.55;3.80;;;10.40;99.90;;;;;;5032816;28;20033;-87
2023/08/06 03:01:33;;;;;;;6.63;2.70;;;10.40;99.90;;;;;;5032664;28;20104;-87
2023/08/06 03:03:59;;;;;;;6.07;3.00;;;10.30;99.90;;;;;;5032745;28;20022;-87
2023/08/06 03:06:24;;;;;;;8.18;2.80;;;10.30;99.90;;;;;;5032693;28;20494;-87
2023/08/06 03:08:50;;;;;;;6.05;2.80;;;10.30;99.90;;;;;;5032622;28;20453;-87
2023/08/06 03:11:16;;;;;;;5.10;2.58;;;10.30;99.90;;;;;;5031320;28;20036;-87
2023/08/06 03:13:41;;;;;;;6.82;2.72;;;10.30;99.90;;;;;;5031817;28;20490;-88
2023/08/06 03:16:07;;;;;;;8.90;3.58;;;10.30;99.90;;;;;;5032747;28;20036;-88
2023/08/06 03:18:32;;;;;;;4.13;2.70;;;10.30;99.90;;;;;;5032674;28;20022;-87
2023/08/06 03:20:58;;;;;;;3.55;2.22;;;10.30;99.90;;;;;;5032862;28;20029;-87
2023/08/06 03:23:24;;;;;;;5.25;2.70;;;10.30;99.90;;;;;;5032112;28;20087;-87
2023/08/06 03:25:49;;;;;;;6.43;3.15;;;10.20;99.90;;;;;;5032779;28;20060;-87
2023/08/06 03:28:15;;;;;;;6.57;3.08;;;10.20;99.90;;;;;;5032692;28;20479;-87
2023/08/06 03:30:40;;;;;;;3.55;2.60;;;10.20;99.90;;;;;;5032818;28;20026;-88
2023/08/06 03:33:06;;;;;;;5.97;3.40;;;10.20;99.90;;;;;;5032556;28;20387;-87
2023/08/06 03:35:32;;;;;;;6.85;3.20;;;10.20;99.90;;;;;;5031431;28;20084;-87
2023/08/06 03:37:57;;;;;;;9.25;3.53;;;10.30;99.90;;;;;;5032200;28;20033;-87
2023/08/06 03:40:23;;;;;;;9.00;2.70;;;10.20;99.90;;;;;;5031170;28;20034;-87
2023/08/06 03:42:49;;;;;;;7.65;2.92;;;10.20;99.90;;;;;;5032652;28;20029;-87
2023/08/06 03:45:14;;;;;;;7.32;2.95;;;10.20;99.90;;;;;;5032177;28;20040;-87
2023/08/06 03:47:40;;;;;;;10.13;3.42;;;10.30;99.90;;;;;;5032263;28;20029;-87
2023/08/06 03:50:06;;;;;;;14.30;2.97;;;10.20;99.90;;;;;;5031099;28;20022;-87
2023/08/06 03:52:32;;;;;;;6.28;2.75;;;10.20;99.90;;;;;;5031380;28;20029;-87
2023/08/06 03:54:57;;;;;;;4.50;2.85;;;10.20;99.90;;;;;;5036006;28;20025;-87
2023/08/06 03:57:23;;;;;;;8.45;2.95;;;10.20;99.90;;;;;;5036185;28;20304;-87
2023/08/06 03:59:48;;;;;;;7.95;3.15;;;10.20;99.90;;;;;;5035757;28;20032;-87
2023/08/06 04:02:14;;;;;;;7.03;2.90;;;10.30;99.90;;;;;;5034811;28;20033;-87
2023/08/06 04:04:40;;;;;;;8.63;3.55;;;10.20;99.90;;;;;;5034473;28;20052;-87
2023/08/06 04:07:05;;;;;;;7.43;3.15;;;10.30;99.90;;;;;;5036078;28;20083;-87
2023/08/06 04:09:31;;;;;;;7.32;3.00;;;10.30;99.90;;;;;;5035808;28;20033;-87
2023/08/06 04:11:58;;;;;;;8.48;2.80;;;10.30;99.90;;;;;;5036035;28;20029;-88
2023/08/06 04:14:26;;;;;;;8.15;3.50;;;10.30;99.90;;;;;;5034556;28;20387;-87
2023/08/06 04:16:51;;;;;;;10.52;3.40;;;10.30;99.90;;;;;;5036046;28;20025;-87
2023/08/06 04:19:17;;;;;;;8.13;3.47;;;10.30;99.90;;;;;;5032780;28;20018;-84
2023/08/06 04:21:42;;;;;;;10.75;3.67;;;10.30;99.90;;;;;;5037817;28;20478;-87
2023/08/06 04:24:08;;;;;;;9.05;4.30;;;10.30;99.90;;;;;;5036163;28;20069;-87
2023/08/06 04:26:34;;;;;;;7.28;3.50;;;10.30;99.90;;;;;;5037375;28;20033;-86
2023/08/06 04:28:59;;;;;;;4.72;3.33;;;10.40;99.90;;;;;;5038558;28;20029;-86
2023/08/06 04:31:25;;;;;;;6.75;3.70;;;10.40;99.90;;;;;;5039041;28;20037;-87
2023/08/06 04:33:50;;;;;;;9.55;3.60;;;10.40;99.90;;;;;;5036569;28;20467;-87
2023/08/06 04:36:16;;;;;;;7.32;3.88;;;10.40;99.90;;;;;;5038382;28;20036;-86
2023/08/06 04:38:44;;;;;;;9.73;3.60;;;10.40;99.90;;;;;;5037532;28;20047;-86
2023/08/06 04:41:11;;;;;;;8.80;3.55;;;10.40;99.90;;;;;;5035324;28;20022;-86
2023/08/06 04:43:36;;;;;;;7.30;3.47;;;10.50;99.90;;;;;;5036250;28;20029;-87
2023/08/06 04:46:02;;;;;;;5.50;3.38;;;10.40;99.90;;;;;;5035443;28;20048;-87
2023/08/06 04:48:28;;;;;;;6.07;3.47;;;10.50;99.90;;;;;;5035079;28;20045;-87
2023/08/06 04:50:54;;;;;;;6.25;3.42;;;10.50;99.90;;;;;;5035472;28;20502;-86
2023/08/06 04:53:20;;;;;;;8.93;3.20;;;10.50;99.90;;;;;;5034157;28;20029;-86
2023/08/06 04:55:46;;;;;;;7.25;3.78;;;10.50;99.90;;;;;;5034109;28;20030;-87
2023/08/06 04:58:12;;;;;;;8.00;3.53;;;10.50;99.90;;;;;;5034093;28;20072;-87
2023/08/06 05:00:38;;;;;;;7.63;3.92;;;10.50;99.90;;;;;;5034168;28;20047;-87
2023/08/06 05:03:06;;;;;;;7.90;3.88;;;10.50;99.90;;;;;;5034130;28;20025;-87
2023/08/06 05:05:31;;;;;;;7.35;3.63;;;10.50;99.90;;;;;;5034141;28;20026;-86
2023/08/06 05:07:57;;;;;;;7.65;3.75;;;10.50;99.90;;;;;;5035025;28;20043;-87
2023/08/06 05:10:27;;;;;;;5.50;3.72;;;10.60;99.90;;;;;;5034133;28;20387;-87
2023/08/06 05:12:53;;;;;;;4.93;3.33;;;10.60;99.90;;;;;;5033730;28;20033;-87
2023/08/06 05:15:19;;;;;;;6.97;3.05;;;10.60;99.90;;;;;;5033550;28;20057;-87
2023/08/06 05:17:45;;;;;;;10.13;3.38;;;10.60;99.90;;;;;;5033131;28;20021;-87
2023/08/06 05:20:11;;;;;;;8.32;3.63;;;10.60;99.90;;;;;;5033597;28;20047;-86
2023/08/06 05:22:36;;;;;;;9.07;3.88;;;10.60;99.90;;;;;;5033226;28;20028;-87
2023/08/06 05:25:02;;;;;;;6.65;3.28;;;10.70;99.90;;;;;;5033479;28;20038;-86
2023/08/06 05:27:28;;;;;;;4.68;3.20;;;10.70;99.90;;;;;;5034724;28;20068;-86
2023/08/06 05:29:58;;;;;;;8.27;3.38;;;10.70;99.90;;;;;;5034567;28;20110;-87
2023/08/06 05:32:24;;;;;;;5.32;3.13;;;10.70;99.90;;;;;;5034669;28;20509;-87
2023/08/06 05:34:49;;;;;;;6.43;3.42;;;10.70;99.90;;;;;;5034764;28;20158;-87
2023/08/06 05:37:15;;;;;;;7.15;3.22;;;10.70;99.90;;;;;;5034670;28;20534;-86
2023/08/06 05:39:41;;;;;;;5.50;3.13;;;10.70;99.90;;;;;;5034266;28;20025;-87
2023/08/06 05:42:06;;;;;;;8.10;3.30;;;10.80;99.90;;;;;;5034339;28;20465;-87
2023/08/06 05:44:32;;;;;;;7.57;3.35;;;10.80;99.90;;;;;;5033928;28;20556;-86
2023/08/06 05:46:58;;;;;;;5.53;2.90;;;10.80;99.90;;;;;;5034859;28;20044;-87
2023/08/06 05:49:23;;;;;;;8.15;2.83;;;10.90;99.90;;;;;;5034698;28;20102;-87
2023/08/06 05:51:49;;;;;;;5.63;3.25;;;10.90;99.90;;;;;;5033241;28;20045;-87
2023/08/06 05:54:14;;;;;;;4.03;3.03;;;10.90;99.90;;;;;;5033989;28;20030;-86
2023/08/06 05:56:40;;;;;;;6.32;3.10;;;11.00;99.90;;;;;;5032740;28;20053;-88
2023/08/06 05:59:06;;;;;;;6.10;3.28;;;11.00;99.90;;;;;;5033770;28;20029;-87
2023/08/06 06:01:31;;;;;;;6.72;3.20;;;11.10;99.90;;;;;;5033593;28;20031;-87
2023/08/06 06:03:57;;;;;;;9.43;3.15;;;11.10;99.90;;;;;;5033840;28;20083;-87
2023/08/06 06:06:22;;;;;;;5.78;3.00;;;11.10;99.90;;;;;;5033985;28;20033;-88
2023/08/06 06:08:48;;;;;;;8.95;3.75;;;11.20;99.90;;;;;;5036174;28;20056;-87
2023/08/06 06:11:14;;;;;;;5.45;3.13;;;11.20;99.90;;;;;;5034702;28;20446;-86
2023/08/06 06:13:39;;;;;;;7.93;3.25;;;11.30;99.90;;;;;;5032498;28;20483;-88
2023/08/06 06:16:05;;;;;;;9.13;4.20;;;11.30;99.90;;;;;;5033188;28;20488;-86
2023/08/06 06:18:31;;;;;;;6.60;3.45;;;11.30;99.90;;;;;;5032847;28;20025;-88
2023/08/06 06:20:56;;;;;;;7.60;3.75;;;11.30;99.90;;;;;;5031337;28;20025;-87
2023/08/06 06:23:22;;;;;;;10.88;4.43;;;11.40;99.90;;;;;;5033076;28;20053;-86
2023/08/06 06:25:54;;;;;;;7.18;3.55;;;11.40;99.90;;;;;;5033224;28;20391;-88
2023/08/06 06:28:20;;;;;;;6.75;3.45;;;11.50;99.90;;;;;;5032106;28;20037;-86
2023/08/06 06:30:45;;;;;;;11.68;3.75;;;11.50;99.90;;;;;;5031665;28;20021;-87
2023/08/06 06:33:11;;;;;;;10.35;3.78;;;11.60;99.90;;;;;;5030523;28;20461;-87
2023/08/06 06:35:37;;;;;;;8.10;3.92;;;11.60;99.90;;;;;;5028472;28;20038;-87
2023/08/06 06:38:03;;;;;;;7.78;4.15;;;11.60;99.90;;;;;;5020307;28;20032;-86
2023/08/06 06:40:28;;;;;;;7.10;3.97;;;11.70;99.90;;;;;;5017686;28;20034;-86
2023/08/06 06:42:54;;;;;;;9.23;4.13;;;11.70;99.90;;;;;;5023209;28;20021;-88
2023/08/06 06:45:20;;;;;;;9.60;3.65;;;11.70;99.90;;;;;;5020431;28;20467;-86
2023/08/06 06:47:45;;;;;;;9.95;4.22;;;11.80;99.90;;;;;;5020043;28;20025;-87
2023/08/06 06:50:11;;;;;;;9.50;4.35;;;11.80;99.90;;;;;;5024349;28;20053;-86
2023/08/06 06:52:37;;;;;;;9.23;3.65;;;11.90;99.90;;;;;;5017673;28;20056;-87
2023/08/06 06:55:03;;;;;;;9.93;3.92;;;11.90;99.90;;;;;;5022131;28;20025;-86
2023/08/06 06:57:29;;;;;;;9.05;4.38;;;11.90;99.90;;;;;;5022781;28;20483;-86
2023/08/06 06:59:54;;;;;;;9.65;4.45;;;12.00;99.90;;;;;;5016687;28;20033;-87
2023/08/06 07:02:20;;;;;;;11.93;4.20;;;12.00;99.90;;;;;;5022480;28;20018;-87
2023/08/06 07:04:46;;;;;;;7.63;4.43;;;12.10;99.90;;;;;;5021349;28;20032;-87
2023/08/06 07:07:11;;;;;;;9.45;4.38;;;12.10;99.90;;;;;;5021642;28;20030;-87
2023/08/06 07:09:37;;;;;;;6.40;4.30;;;12.20;99.90;;;;;;5016269;28;20018;-86
2023/08/06 07:12:03;;;;;;;7.50;4.85;;;12.20;99.90;;;;;;5015948;28;20037;-86
2023/08/06 07:14:28;;;;;;;6.63;4.38;;;12.30;99.90;;;;;;5019630;28;20034;-86
2023/08/06 07:16:54;;;;;;;8.13;4.18;;;12.30;99.90;;;;;;5019418;28;20018;-86
2023/08/06 07:19:20;;;;;;;7.72;4.45;;;12.40;99.90;;;;;;5018747;28;20557;-85
2023/08/06 07:21:46;;;;;;;6.03;3.88;;;12.50;99.90;;;;;;5021284;28;20148;-86
2023/08/06 07:24:11;;;;;;;9.00;4.18;;;12.50;99.90;;;;;;5018814;28;20062;-85
2023/08/06 07:26:37;;;;;;;5.95;3.97;;;12.60;99.90;;;;;;5019872;28;20053;-85
2023/08/06 07:29:03;;;;;;;11.45;3.83;;;12.60;99.90;;;;;;5024297;28;20029;-86
2023/08/06 07:31:29;;;;;;;6.53;3.50;;;12.70;99.90;;;;;;5025340;28;20399;-86
2023/08/06 07:33:54;;;;;;;9.52;3.83;;;12.80;99.90;;;;;;5023634;28;20068;-86
2023/08/06 07:36:20;;;;;;;7.85;4.18;;;12.90;99.90;;;;;;5023922;28;20479;-86
2023/08/06 07:38:47;;;;;;;7.50;3.30;;;12.90;99.90;;;;;;5025150;28;20484;-86
2023/08/06 07:41:12;;;;;;;8.23;3.13;;;13.00;99.90;;;;;;5025755;28;20053;-85
2023/08/06 07:43:38;;;;;;;7.78;3.10;;;13.00;99.90;;;;;;5025421;28;20060;-86
2023/08/06 07:46:04;;;;;;;6.50;2.78;;;13.10;99.90;;;;;;5020671;28;20034;-86
2023/08/06 07:48:30;;;;;;;6.25;3.03;;;13.20;99.90;;;;;;5023804;28;20020;-84
2023/08/06 07:51:01;;;;;;;7.25;3.25;;;13.20;99.90;;;;;;5023211;28;20030;-89
2023/08/06 07:53:29;;;;;;;5.57;3.30;;;13.30;99.90;;;;;;5025244;28;20097;-86
2023/08/06 07:55:55;;;;;;;4.47;2.65;;;13.30;99.90;;;;;;5023804;28;20109;-85
2023/08/06 07:58:21;;;;;;;4.88;2.80;;;13.40;99.90;;;;;;5023654;28;20054;-86
2023/08/06 08:00:47;;;;;;;5.43;2.58;;;13.40;99.90;;;;;;5025184;28;20029;-85
2023/08/06 08:03:13;;;;;;;5.07;2.53;;;13.40;99.90;;;;;;5029706;28;20022;-85
2023/08/06 08:05:40;;;;;;;4.97;2.20;;;13.50;99.90;;;;;;5026521;28;20072;-88
2023/08/06 08:08:05;;;;;;;5.22;2.08;;;13.60;99.90;;;;;;5021858;28;20034;-86
2023/08/06 08:10:32;;;;;;;5.10;2.40;;;13.60;99.90;;;;;;5023345;28;20412;-86
2023/08/06 08:12:58;;;;;;;6.40;1.92;;;13.70;99.90;;;;;;5023789;28;20052;-85
2023/08/06 08:15:28;;;;;;;4.55;1.80;;;13.70;99.90;;;;;;5020803;28;20046;-86
2023/08/06 08:17:53;;;;;;;3.67;1.97;;;13.80;99.90;;;;;;5020267;28;20429;-85
2023/08/06 08:20:19;;;;;;;6.15;1.75;;;13.80;99.90;;;;;;5025201;28;20379;-88
2023/08/06 08:22:45;;;;;;;3.80;2.13;;;13.80;99.90;;;;;;5019106;28;20380;-87
2023/08/06 08:25:10;;;;;;;6.13;2.42;;;13.90;99.90;;;;;;5015261;28;20037;-87
2023/08/06 08:27:36;;;;;;;4.07;2.47;;;13.90;99.90;;;;;;5014688;28;20037;-87
2023/08/06 08:30:02;;;;;;;4.93;2.38;;;14.00;99.90;;;;;;5020045;28;20026;-87
2023/08/06 08:32:27;;;;;;;3.80;2.20;;;14.00;99.90;;;;;;5021552;28;20034;-88
2023/08/06 08:34:53;;;;;;;5.78;2.30;;;14.10;99.90;;;;;;5022436;28;20152;-87
2023/08/06 08:37:19;;;;;;;10.82;3.00;;;14.20;99.90;;;;;;5018868;28;20037;-86
2023/08/06 08:39:45;;;;;;;3.90;2.15;;;14.20;99.90;;;;;;5019122;28;20025;-88
2023/08/06 08:42:10;;;;;;;7.45;2.00;;;14.30;99.90;;;;;;5024560;28;20545;-88
2023/08/06 08:44:39;;;;;;;3.67;1.98;;;14.30;99.90;;;;;;5022699;28;20101;-87
2023/08/06 08:47:10;;;;;;;4.97;2.35;;;14.40;99.90;;;;;;5023143;28;20038;-88
2023/08/06 08:49:36;;;;;;;2.97;1.88;;;14.50;99.90;;;;;;5024597;28;20029;-87
2023/08/06 08:52:07;;;;;;;3.28;1.80;;;14.50;99.90;;;;;;5024614;28;20033;-88
2023/08/06 08:54:34;;;;;;;3.25;1.63;;;14.50;99.90;;;;;;5024483;28;20115;-87
2023/08/06 08:57:00;;;;;;;7.78;3.00;;;14.60;99.90;;;;;;5028578;28;20025;-88
2023/08/06 08:59:27;;;;;;;3.38;1.70;;;14.70;99.90;;;;;;5022251;28;20112;-87
2023/08/06 09:01:54;;;;;;;6.13;1.85;;;14.70;99.90;;;;;;5022257;28;20029;-87
2023/08/06 09:04:21;;;;;;;5.82;1.98;;;14.70;99.90;;;;;;5025434;28;20120;-86
2023/08/06 09:06:50;;;;;;;4.82;1.75;;;14.70;99.90;;;;;;5017641;28;20046;-86
2023/08/06 09:09:37;;;;;;;2.75;1.77;;;14.80;99.90;;;;;;5017866;28;20792;-88
2023/08/06 09:12:16;;;;;;;4.05;1.95;;;14.80;99.90;;;;;;5021139;28;20100;-88
2023/08/06 09:14:42;;;;;;;4.22;1.90;;;14.90;99.90;;;;;;5021425;28;20113;-86
2023/08/06 09:17:10;;;;;;;2.15;1.50;;;15.00;99.90;;;;;;5021203;28;20022;-87
2023/08/06 09:19:37;;;;;;;5.93;2.30;;;15.10;99.90;;;;;;5018463;28;20037;-87
2023/08/06 09:22:04;;;;;;;2.03;1.40;;;15.20;99.90;;;;;;5017838;28;20037;-87
2023/08/06 09:24:30;;;;;;;3.95;2.33;;;15.30;99.90;;;;;;5014793;28;20103;-86
2023/08/06 09:26:55;;;;;;;2.30;1.58;;;15.30;99.90;;;;;;5014876;28;20029;-88
2023/08/06 09:29:21;;;;;;;4.65;1.90;;;15.40;99.90;;;;;;5017757;28;20044;-87
2023/08/06 09:31:48;;;;;;;4.43;1.63;;;15.40;99.90;;;;;;5025097;28;20028;-88
2023/08/06 09:34:22;;;;;;;2.30;1.63;;;15.50;99.90;;;;;;5024664;28;20018;-89
2023/08/06 09:36:56;;;;;;;3.88;1.65;;;15.60;99.90;;;;;;5024554;28;20025;-88
2023/08/06 09:39:27;;;;;;;3.08;2.15;;;15.70;99.90;;;;;;5024968;28;20433;-88
2023/08/06 09:42:01;;;;;;;2.55;1.70;;;15.80;99.90;;;;;;5023712;28;20037;-89
2023/08/06 09:44:28;;;;;;;4.10;1.90;;;15.90;99.90;;;;;;5025792;28;20022;-89
2023/08/06 09:46:56;;;;;;;4.43;2.03;;;16.00;99.90;;;;;;5029880;28;20059;-88
2023/08/06 09:49:28;;;;;;;4.45;1.95;;;16.10;99.90;;;;;;5025841;28;20021;-89
2023/08/06 09:51:58;;;;;;;3.42;1.90;;;16.20;99.90;;;;;;5023566;28;20383;-87
2023/08/06 09:54:24;;;;;;;3.60;1.92;;;16.20;99.90;;;;;;5023967;28;20075;-88
2023/08/06 09:56:51;;;;;;;3.20;1.58;;;16.30;99.90;;;;;;5020854;28;20080;-88
2023/08/06 09:59:18;;;;;;;2.67;1.75;;;16.40;99.90;;;;;;5022852;28;20026;-88
2023/08/06 10:01:45;;;;;;;3.85;2.00;;;16.40;99.90;;;;;;5022576;28;20022;-89
2023/08/06 10:04:12;;;;;;;4.78;2.08;;;16.50;99.90;;;;;;5023418;28;20029;-88
2023/08/06 10:06:39;;;;;;;5.20;1.98;;;16.50;99.90;;;;;;5024658;28;20049;-85
2023/08/06 10:09:05;;;;;;;3.95;1.92;;;16.60;99.90;;;;;;5021022;28;20053;-88
2023/08/06 10:11:31;;;;;;;6.97;2.10;;;16.60;99.90;;;;;;5023186;28;20052;-87
2023/08/06 10:14:13;;;;;;;5.45;1.80;;;16.70;99.90;;;;;;5023606;28;20017;-87
2023/08/06 10:16:40;;;;;;;4.22;1.90;;;16.70;99.90;;;;;;5023132;28;20033;-87
2023/08/06 10:19:09;;;;;;;2.42;1.70;;;16.80;99.90;;;;;;5022546;28;20034;-88
2023/08/06 10:21:35;;;;;;;2.13;1.50;;;16.80;99.50;;;;;;5022063;28;20573;-87
2023/08/06 10:24:02;;;;;;;2.55;1.58;;;16.80;98.80;;;;;;5022865;28;20041;-87
2023/08/06 10:26:30;;;;;;;2.10;1.75;;;16.80;97.80;;;;;;5023792;28;20345;-87
2023/08/06 10:28:57;;;;;;;3.67;1.60;;;16.80;97.20;;;;;;5022107;28;20456;-88
2023/08/06 10:32:00;;;;;;;5.65;1.88;;;16.80;96.70;;;;;;5022076;28;20452;-87
2023/08/06 10:34:58;;;;;;;7.15;1.88;;;16.90;96.30;;;;;;5024059;28;20101;-88
2023/08/06 10:37:36;;;;;;;1.80;1.27;;;17.00;95.70;;;;;;5023665;28;20021;-88
2023/08/06 10:40:03;;;;;;;3.10;1.40;;;17.00;95.00;;;;;;5030535;28;20104;-87
2023/08/06 10:42:30;;;;;;;3.40;1.60;;;17.10;94.90;;;;;;5028806;28;20021;-87
2023/08/06 10:45:15;;;;;;;2.60;1.27;;;17.20;94.40;;;;;;5025103;28;20025;-87
2023/08/06 10:47:42;;;;;;;3.22;1.25;;;17.30;92.90;;;;;;5028225;28;20052;-86
2023/08/06 10:50:10;;;;;;;2.65;1.40;;;17.40;92.20;;;;;;5024905;28;20101;-87
2023/08/06 10:52:36;;;;;;;3.10;1.38;;;17.50;91.90;;;;;;5022492;28;20117;-88
2023/08/06 10:55:02;;;;;;;2.08;1.23;;;17.70;91.40;;;;;;5022906;28;20112;-85
2023/08/06 10:57:27;;;;;;;4.00;1.33;;;17.80;90.90;;;;;;5025283;28;20479;-86
2023/08/06 10:59:53;;;;;;;2.10;1.40;;;18.00;90.70;;;;;;5025385;28;20022;-87
2023/08/06 11:02:19;;;;;;;2.67;1.52;;;18.10;90.80;;;;;;5025531;28;20108;-87
2023/08/06 11:04:45;;;;;;;3.03;1.65;;;18.20;90.40;;;;;;5025348;28;20022;-88
2023/08/06 11:07:10;;;;;;;1.95;1.75;;;18.30;90.10;;;;;;5023591;28;20040;-88
2023/08/06 11:09:37;;;;;;;2.50;1.60;;;18.40;89.70;;;;;;5023313;28;20022;-87
2023/08/06 11:12:06;;;;;;;2.00;1.30;;;18.40;89.10;;;;;;5021324;28;20043;-88
2023/08/06 11:14:32;;;;;;;2.08;1.58;;;18.50;88.80;;;;;;5023635;28;20033;-87
2023/08/06 11:16:57;;;;;;;2.75;1.45;;;18.60;88.10;;;;;;5022996;28;20463;-87
2023/08/06 11:19:23;;;;;;;2.58;1.60;;;18.70;88.00;;;;;;5022391;28;20030;-86
2023/08/06 11:21:51;;;;;;;2.55;1.23;;;18.80;87.10;;;;;;5021634;28;20018;-87
2023/08/06 11:24:20;;;;;;;1.83;1.40;;;19.00;86.80;;;;;;5021794;28;20048;-88
2023/08/06 11:26:46;;;;;;;3.38;1.55;;;19.40;86.50;;;;;;5023655;28;21342;-88
2023/08/06 11:29:11;;;;;;;2.25;1.30;;;19.50;85.90;;;;;;5021379;28;20110;-88
2023/08/06 11:31:37;;;;;;;2.35;1.30;;;19.60;84.50;;;;;;5021533;28;20494;-88
2023/08/06 11:34:03;;;;;;;2.42;1.45;;;19.50;83.70;;;;;;5024424;28;20021;-87
2023/08/06 11:36:33;;;;;;;3.35;1.48;;;19.50;83.70;;;;;;5026652;28;20080;-87
2023/08/06 11:39:02;;;;;;;3.38;1.80;;;19.50;83.80;;;;;;5022767;28;20505;-88
2023/08/06 11:41:32;;;;;;;1.93;1.50;;;19.50;83.80;;;;;;5021200;28;20038;-88
2023/08/06 11:44:01;;;;;;;4.38;1.38;;;19.60;83.70;;;;;;5020262;28;20295;-88
2023/08/06 11:46:29;;;;;;;1.90;1.50;;;19.60;83.60;;;;;;5021805;28;20063;-88
2023/08/06 11:48:59;;;;;;;2.97;1.35;;;19.50;83.30;;;;;;5018955;28;20029;-87
2023/08/06 11:51:25;;;;;;;1.95;1.40;;;19.50;83.40;;;;;;5020800;28;20021;-88
2023/08/06 11:53:58;;;;;;;3.58;1.40;;;19.50;83.90;;;;;;5022591;28;20026;-88
2023/08/06 11:56:25;;;;;;;4.30;1.52;;;19.50;83.80;;;;;;5021420;28;20123;-87
2023/08/06 11:58:51;;;;;;;3.60;1.45;;;19.50;83.60;;;;;;5021312;28;20162;-87
2023/08/06 12:01:18;;;;;;;3.63;1.55;;;19.40;83.50;;;;;;5022838;28;20421;-88
2023/08/06 12:03:43;;;;;;;3.33;1.50;;;19.40;83.50;;;;;;5020839;28;20475;-88
2023/08/06 12:06:09;;;;;;;2.70;1.45;;;19.30;83.40;;;;;;5021200;28;20034;-87
2023/08/06 12:08:35;;;;;;;1.98;1.30;;;19.20;82.90;;;;;;5021297;28;20028;-87
2023/08/06 12:11:01;;;;;;;2.35;1.60;;;19.10;82.90;;;;;;5019455;28;20026;-87
2023/08/06 12:13:26;;;;;;;2.15;1.40;;;19.10;83.10;;;;;;5021956;28;20412;-88
2023/08/06 12:15:54;;;;;;;3.78;1.40;;;19.00;83.30;;;;;;5025931;28;20479;-87
2023/08/06 12:18:20;;;;;;;3.17;2.10;;;19.00;83.50;;;;;;5022686;28;20061;-87
2023/08/06 12:20:45;;;;;;;2.05;1.38;;;19.00;83.80;;;;;;5025080;28;20060;-85
2023/08/06 12:23:15;;;;;;;2.38;1.20;;;19.00;84.00;;;;;;5025372;28;20065;-87
2023/08/06 12:25:41;;;;;;;2.28;1.25;;;19.00;83.70;;;;;;5026068;28;20033;-88
2023/08/06 12:28:08;;;;;;;1.75;1.30;;;19.00;83.70;;;;;;5024474;28;20029;-89
2023/08/06 12:30:34;;;;;;;1.77;1.10;;;19.00;83.80;;;;;;5023753;28;20036;-88
2023/08/06 12:33:00;;;;;;;2.50;1.15;;;19.10;84.10;;;;;;5023098;28;20029;-88
2023/08/06 12:35:26;;;;;;;2.17;1.10;;;19.10;83.80;;;;;;5026320;28;20422;-90
2023/08/06 12:37:54;;;;;;;2.13;1.10;;;19.10;83.50;;;;;;5026257;28;20028;-89
2023/08/06 12:40:20;;;;;;;1.58;1.02;;;19.20;83.00;;;;;;5023249;28;20017;-88
2023/08/06 12:42:46;;;;;;;2.83;1.00;;;19.30;82.90;;;;;;5024409;28;20072;-88
2023/08/06 12:45:12;;;;;;;1.50;1.20;;;19.40;82.90;;;;;;5024949;28;20450;-87